CIET2: Wichita River Nr Charlie, TX

Data processed at Fri Jan 05 2018 23:56


All information presented herein is the property of the government of the United States of America and may be revised or deleted at any time without prior notice.
Dissemination of this information without the expressed written consent of the Public Affairs Office, Tulsa District U.S. Army Corps of Engineers is strictly prohibited.
These data are gathered electronically and, as presented, have not undergone any form of quality control. These data are not guaranteed to be valid or correct.
Go to home page.
Go to station list.

Upstream stations:

Downstream station:
Previous Day
Next Day
Current Day
    
SHEF ID:       CHWT2     Wichita River nr Charlie, TX
STATION TYPE:  

               PRECIP     STAGE  RIV-FLOW  WTR-TEMP   CONDUCT  BAT-LOAD
                   in        ft       cfs         F   umho/cm      volt
              Ccp-Rev   Ccp-Rev   Ccp-Rev   Ccp-Rev   Ccp-Rev   Ccp-Rev
(US/Central)
01/03 00:00      0.00      4.81        46     31.62      4400     12.60
01/03 01:00      0.00      4.80        44     31.59      4418     12.60
01/03 02:00      0.00      4.80        44     31.57      4419     12.60
01/03 03:00      0.00      4.78        42     31.57      4257     12.54
01/03 04:00      0.00      4.76        39     31.59      4221     12.54
01/03 05:00      0.00      4.74        37     31.59      4212     12.54
01/03 06:00      0.00      4.72        34     31.59      4218     12.48
01/03 07:00      0.00      4.69        31     31.59      4221     12.42
01/03 08:00      0.00      4.66        28     31.59      4230     12.71
01/03 09:00      0.00      4.63        25     31.60      4243     14.94
01/03 10:00      0.00      4.61        23     31.78      4498     14.94
01/03 11:00      0.00      4.63        25     32.27      4575     14.94
01/03 12:00      0.00      4.65        27     32.70      4571     14.94
01/03 13:00      0.00      4.68        30     33.01      4574     14.76
01/03 14:00      0.00      4.72        34     33.17      4576     14.76
01/03 15:00      0.00      4.77        40     33.24      4566     14.71
01/03 16:00      0.00      4.82        47     33.13      4561     14.00
01/03 17:00      0.00      4.83        49     32.88      4556     13.53
01/03 18:00      0.00      4.83        49     32.68      4549     13.07
01/03 19:00      0.00      4.84        50     32.50      4520     12.77
01/03 20:00      0.00      4.85        51     32.32      4483     12.71
01/03 21:00      0.00      4.87        54     32.16      4450     12.71
01/03 22:00      0.00      4.88        56     32.02      4435     12.65
01/03 23:00      0.00      4.89        57     31.89      4434     12.65